Time;durP1;ratioP1;P1;durP2;ratioP2;P2;SDS_P1;SDS_P2;PMS_P1;PMS_P2;Temp;Humidity;BMP_temperature;BMP_pressure;BME280_temperature;BME280_humidity;BME280_pressure;Samples;Min_cycle;Max_cycle;Signal;HPM_P1;HPM_P2
2022/05/23 00:02:13;;;;;;;3.53;1.05;;;18.60;78.70;;;;;;10539461;28;20115;-66
2022/05/23 00:07:36;;;;;;;2.30;1.08;;;18.70;78.80;;;;;;10539151;28;20400;-63
2022/05/23 00:12:37;;;;;;;2.67;1.20;;;18.50;78.70;;;;;;10538834;28;20024;-65
2022/05/23 00:17:38;;;;;;;1.38;1.02;;;18.50;78.80;;;;;;10537995;28;20409;-68
2022/05/23 00:22:39;;;;;;;1.20;1.10;;;18.40;78.70;;;;;;10538286;28;20472;-65
2022/05/23 00:27:42;;;;;;;1.58;1.00;;;18.40;78.70;;;;;;10538080;28;20032;-74
2022/05/23 00:38:03;;;;;;;2.08;1.00;;;18.40;78.80;;;;;;10537853;28;20142;-73
2022/05/23 00:43:25;;;;;;;2.15;1.20;;;18.40;78.80;;;;;;10537426;28;20032;-62
2022/05/23 00:48:28;;;;;;;2.47;1.20;;;18.30;78.70;;;;;;10537464;28;20448;-75
2022/05/23 00:53:34;;;;;;;1.50;1.00;;;18.30;78.70;;;;;;10537079;28;20472;-74
2022/05/23 00:58:42;;;;;;;1.90;1.10;;;18.30;79.30;;;;;;10536720;28;20035;-66
2022/05/23 01:03:43;;;;;;;2.20;1.08;;;18.30;78.70;;;;;;10536985;28;20039;-57
2022/05/23 01:08:45;;;;;;;1.13;1.02;;;18.30;78.80;;;;;;10536632;28;20399;-71
2022/05/23 01:13:46;;;;;;;1.30;1.00;;;18.20;78.70;;;;;;10536408;28;20032;-66
2022/05/23 01:18:47;;;;;;;2.83;1.10;;;18.20;78.70;;;;;;10536330;28;20444;-63
2022/05/23 01:23:57;;;;;;;1.48;1.10;;;18.20;78.80;;;;;;10536343;28;20465;-59
2022/05/23 01:28:58;;;;;;;1.45;1.00;;;18.20;78.80;;;;;;10535401;28;20416;-65
2022/05/23 01:33:59;;;;;;;1.40;1.00;;;18.20;78.80;;;;;;10536061;28;20504;-69
2022/05/23 01:38:59;;;;;;;1.63;1.20;;;18.10;78.80;;;;;;10536018;28;20055;-63
2022/05/23 01:44:00;;;;;;;3.00;1.23;;;18.10;78.80;;;;;;10535973;28;20523;-58
2022/05/23 01:49:01;;;;;;;1.75;1.23;;;18.10;78.80;;;;;;10535846;28;20048;-70
2022/05/23 01:54:01;;;;;;;1.17;1.00;;;18.10;78.80;;;;;;10535845;28;20028;-57
2022/05/23 02:04:21;;;;;;;4.35;1.08;;;18.00;78.80;;;;;;10535599;28;20036;-64
2022/05/23 02:09:26;;;;;;;2.78;1.08;;;18.00;78.90;;;;;;10535501;28;20104;-68
2022/05/23 02:14:26;;;;;;;2.83;1.60;;;18.00;78.90;;;;;;10535435;28;20060;-72
2022/05/23 02:19:31;;;;;;;2.45;1.25;;;18.00;78.90;;;;;;10535239;28;20079;-73
2022/05/23 02:24:32;;;;;;;2.65;1.13;;;18.00;78.90;;;;;;10534949;28;20020;-74
2022/05/23 02:29:34;;;;;;;2.25;1.25;;;17.90;78.90;;;;;;10534928;28;20134;-61
2022/05/23 02:34:34;;;;;;;2.45;1.17;;;18.00;78.90;;;;;;10534922;28;20028;-74
2022/05/23 02:39:35;;;;;;;3.15;1.35;;;17.90;78.90;;;;;;10538042;28;20047;-66
2022/05/23 02:44:36;;;;;;;2.47;1.30;;;17.90;78.90;;;;;;10542441;28;20028;-74
2022/05/23 02:49:37;;;;;;;1.55;1.10;;;17.90;78.90;;;;;;10542229;28;20039;-73
2022/05/23 02:54:37;;;;;;;2.00;1.23;;;17.90;78.90;;;;;;10542304;28;20025;-74
2022/05/23 02:59:38;;;;;;;2.67;1.30;;;17.90;78.90;;;;;;10541715;28;20540;-73
2022/05/23 03:04:39;;;;;;;3.33;1.30;;;17.80;78.80;;;;;;10541414;28;20043;-68
2022/05/23 03:09:40;;;;;;;1.90;1.50;;;17.80;78.80;;;;;;10541539;28;20447;-70
2022/05/23 03:14:40;;;;;;;2.75;1.38;;;17.80;79.40;;;;;;10541002;28;20132;-70
2022/05/23 03:19:41;;;;;;;1.63;1.20;;;17.80;78.90;;;;;;10540930;28;20101;-64
2022/05/23 03:30:01;;;;;;;1.42;1.30;;;17.80;79.00;;;;;;10540324;28;20490;-72
2022/05/23 03:35:03;;;;;;;2.17;1.42;;;17.70;78.90;;;;;;10540171;28;20032;-64
2022/05/23 03:40:06;;;;;;;1.95;1.42;;;17.70;79.50;;;;;;10540199;28;20028;-72
2022/05/23 03:45:07;;;;;;;1.60;1.25;;;17.70;78.90;;;;;;10539944;28;20032;-72
2022/05/23 03:50:08;;;;;;;1.23;1.13;;;17.70;78.90;;;;;;10538895;28;20032;-57
2022/05/23 03:55:09;;;;;;;1.30;1.20;;;17.70;78.90;;;;;;10539439;28;20047;-68
2022/05/23 04:00:12;;;;;;;3.30;1.17;;;17.70;79.00;;;;;;10539242;28;20128;-65
2022/05/23 04:05:15;;;;;;;4.60;2.05;;;17.60;78.90;;;;;;10539120;28;20035;-74
2022/05/23 04:10:17;;;;;;;2.95;1.40;;;17.60;79.00;;;;;;10538919;28;20042;-67
2022/05/23 04:15:18;;;;;;;2.92;1.50;;;17.60;79.00;;;;;;10538838;28;20060;-62
2022/05/23 04:20:19;;;;;;;1.88;1.10;;;17.60;79.00;;;;;;10538814;28;20511;-60
2022/05/23 04:25:20;;;;;;;5.72;1.75;;;17.60;79.00;;;;;;10538295;28;20062;-71
2022/05/23 04:30:21;;;;;;;3.05;1.42;;;17.60;79.10;;;;;;10538114;28;20055;-74
2022/05/23 04:35:22;;;;;;;2.65;1.35;;;17.60;79.00;;;;;;10537815;28;20047;-62
2022/05/23 04:40:25;;;;;;;2.30;1.30;;;17.60;79.00;;;;;;10537763;28;20032;-71
2022/05/23 04:45:26;;;;;;;2.85;1.40;;;17.60;79.00;;;;;;10537545;28;20032;-72
2022/05/23 04:50:28;;;;;;;2.80;1.27;;;17.50;79.00;;;;;;10537397;28;20035;-56
2022/05/23 04:55:29;;;;;;;3.80;1.40;;;17.50;79.00;;;;;;10537227;28;20131;-69
2022/05/23 05:00:30;;;;;;;1.75;1.42;;;17.50;79.60;;;;;;10537058;28;20119;-61
2022/05/23 05:05:33;;;;;;;2.20;1.30;;;17.50;79.00;;;;;;10535891;28;20044;-66
2022/05/23 05:10:34;;;;;;;1.45;1.20;;;17.50;79.00;;;;;;10536348;28;20500;-62
2022/05/23 05:15:35;;;;;;;1.35;1.20;;;17.50;79.00;;;;;;10536211;28;20047;-63
2022/05/23 05:20:36;;;;;;;1.30;1.20;;;17.50;79.00;;;;;;10536524;28;20032;-61
2022/05/23 05:25:41;;;;;;;2.13;1.30;;;17.50;79.00;;;;;;10536202;28;20136;-61
2022/05/23 05:30:49;;;;;;;2.28;1.27;;;17.50;79.00;;;;;;10533709;28;20104;-73
2022/05/23 05:35:54;;;;;;;2.80;1.30;;;17.50;79.00;;;;;;10535271;28;20456;-72
2022/05/23 05:41:04;;;;;;;1.55;1.33;;;17.50;79.00;;;;;;10536035;28;20037;-72
2022/05/23 05:46:30;;;;;;;2.50;1.38;;;17.50;79.00;;;;;;10535735;28;20054;-64
2022/05/23 05:51:32;;;;;;;2.08;1.27;;;17.50;79.00;;;;;;10535650;28;20036;-57
2022/05/23 05:56:33;;;;;;;2.28;1.40;;;17.50;79.00;;;;;;10535513;28;20052;-57
2022/05/23 06:01:34;;;;;;;2.60;1.48;;;17.50;79.20;;;;;;10535483;28;20041;-64
2022/05/23 06:11:54;;;;;;;2.10;1.40;;;17.50;79.30;;;;;;10535084;28;20380;-58
2022/05/23 06:16:55;;;;;;;3.05;1.58;;;17.50;79.20;;;;;;10542143;28;20051;-62
2022/05/23 06:21:56;;;;;;;2.28;1.38;;;17.60;79.20;;;;;;10543022;28;20055;-67
2022/05/23 06:26:56;;;;;;;3.10;1.50;;;17.60;79.20;;;;;;10542860;28;20032;-65
2022/05/23 06:31:57;;;;;;;3.10;1.48;;;17.60;79.10;;;;;;10542264;28;20052;-69
2022/05/23 06:36:59;;;;;;;2.17;1.40;;;17.70;79.10;;;;;;10542454;28;20051;-70
2022/05/23 06:42:00;;;;;;;1.80;1.40;;;17.70;79.00;;;;;;10542284;28;20032;-59
2022/05/23 06:47:02;;;;;;;2.45;1.40;;;17.70;79.00;;;;;;10541622;28;20123;-63
2022/05/23 06:52:03;;;;;;;1.40;1.20;;;17.70;79.00;;;;;;10541651;28;20573;-67
2022/05/23 06:57:04;;;;;;;2.85;1.70;;;17.80;79.00;;;;;;10541304;28;20411;-57
2022/05/23 07:02:07;;;;;;;2.05;1.20;;;17.80;78.90;;;;;;10541466;28;20040;-65
2022/05/23 07:12:28;;;;;;;3.65;1.50;;;17.90;78.90;;;;;;10541170;28;20060;-59
2022/05/23 07:17:28;;;;;;;2.92;1.50;;;17.90;78.90;;;;;;10540945;28;20048;-67
2022/05/23 07:22:29;;;;;;;4.05;1.73;;;17.90;78.90;;;;;;10540347;28;20526;-57
2022/05/23 07:27:30;;;;;;;2.80;1.95;;;18.00;78.90;;;;;;10539351;28;20047;-57
2022/05/23 07:32:31;;;;;;;2.67;1.60;;;18.00;78.90;;;;;;10537823;28;20044;-58
2022/05/23 07:37:31;;;;;;;3.33;1.50;;;18.00;79.00;;;;;;10540119;28;20109;-61
2022/05/23 07:42:32;;;;;;;2.83;1.85;;;18.00;78.90;;;;;;10539802;28;20047;-59
2022/05/23 07:47:33;;;;;;;1.88;1.60;;;18.00;79.00;;;;;;10539203;28;20043;-61
2022/05/23 07:52:34;;;;;;;2.72;1.73;;;18.10;79.00;;;;;;10539755;28;20063;-66
2022/05/23 08:02:54;;;;;;;4.43;2.13;;;18.20;79.10;;;;;;10539172;28;20496;-59
2022/05/23 08:07:56;;;;;;;5.03;3.40;;;18.20;79.10;;;;;;10538971;28;20043;-67
2022/05/23 08:12:58;;;;;;;7.07;3.58;;;18.30;79.80;;;;;;10538879;28;20135;-67
2022/05/23 08:17:58;;;;;;;7.38;3.90;;;18.40;80.40;;;;;;10538573;28;20454;-72
2022/05/23 08:22:59;;;;;;;7.88;3.90;;;18.60;80.90;;;;;;10538235;28;20089;-68
2022/05/23 08:28:00;;;;;;;6.90;4.00;;;18.80;81.10;;;;;;10538185;28;20127;-70
2022/05/23 08:33:00;;;;;;;5.70;3.90;;;18.90;81.20;;;;;;10537736;28;20066;-73
2022/05/23 08:38:02;;;;;;;7.43;4.63;;;19.00;81.10;;;;;;10537510;28;20472;-72
2022/05/23 08:43:05;;;;;;;9.35;4.50;;;19.20;82.00;;;;;;10537917;28;20044;-72
2022/05/23 08:48:38;;;;;;;5.63;4.03;;;19.30;81.50;;;;;;10537757;28;20028;-68
2022/05/23 08:53:46;;;;;;;6.60;3.88;;;19.40;82.50;;;;;;10537215;28;20081;-60
2022/05/23 08:58:52;;;;;;;8.68;4.35;;;19.50;82.80;;;;;;10537381;28;20044;-79
2022/05/23 09:04:30;;;;;;;6.20;3.85;;;19.70;81.80;;;;;;10537117;28;20028;-66
2022/05/23 09:09:32;;;;;;;;;;;19.80;82.70;;;;;;10536936;28;20372;-60
2022/05/23 09:14:33;;;;;;;6.75;4.00;;;19.90;82.90;;;;;;10537132;28;19915;-64
2022/05/23 09:19:56;;;;;;;6.55;3.33;;;20.20;81.30;;;;;;10536219;28;20139;-67
2022/05/23 09:24:58;;;;;;;8.82;4.60;;;20.20;82.80;;;;;;10535733;28;20028;-76
2022/05/23 09:29:59;;;;;;;7.32;3.90;;;20.40;81.90;;;;;;10535393;28;20040;-64
2022/05/23 09:35:03;;;;;;;6.90;4.28;;;20.50;81.70;;;;;;10534899;28;20131;-61
2022/05/23 09:40:06;;;;;;;7.50;3.97;;;20.60;82.30;;;;;;10535113;28;20048;-69
2022/05/23 09:51:00;;;;;;;3.28;2.85;;;20.70;81.60;;;;;;10540866;28;20056;-72
2022/05/23 09:56:29;;;;;;;5.90;3.30;;;20.80;81.30;;;;;;10543829;28;20127;-69
2022/05/23 10:01:32;;;;;;;3.35;2.70;;;20.80;80.60;;;;;;10543575;28;20028;-63
2022/05/23 10:06:42;;;;;;;4.18;3.00;;;20.90;81.00;;;;;;10543574;28;20381;-61
2022/05/23 10:11:56;;;;;;;6.55;3.10;;;21.00;80.20;;;;;;10543433;28;20032;-67
2022/05/23 10:16:58;;;;;;;8.25;2.60;;;21.10;80.20;;;;;;10542681;28;20040;-64
2022/05/23 10:22:09;;;;;;;5.45;2.33;;;21.20;80.00;;;;;;10542559;28;20040;-64
2022/05/23 10:27:15;;;;;;;3.95;2.40;;;21.40;79.30;;;;;;10542526;28;20401;-65
2022/05/23 10:32:38;;;;;;;3.25;2.35;;;21.60;78.30;;;;;;10542096;28;20050;-68
2022/05/23 10:37:40;;;;;;;5.38;2.30;;;21.60;77.90;;;;;;10541886;28;20471;-65
2022/05/23 10:42:59;;;;;;;2.67;2.22;;;21.70;77.90;;;;;;10541745;28;20052;-62
2022/05/23 10:48:16;;;;;;;3.22;2.63;;;21.90;77.60;;;;;;10542082;28;20031;-62
2022/05/23 10:53:51;;;;;;;3.17;2.75;;;22.20;77.10;;;;;;10541730;28;20492;-61
2022/05/23 10:58:56;;;;;;;3.90;2.30;;;22.30;76.50;;;;;;10541370;28;20071;-67
2022/05/23 11:04:18;;;;;;;2.70;2.10;;;22.40;76.30;;;;;;10541338;28;20052;-69
2022/05/23 11:09:36;;;;;;;3.60;2.40;;;22.30;75.80;;;;;;10541212;28;20044;-64
2022/05/23 11:15:39;;;;;;;3.35;1.98;;;22.50;74.50;;;;;;10540941;28;20032;-61
2022/05/23 11:20:41;;;;;;;6.43;2.20;;;22.60;73.70;;;;;;10515230;28;20436;-60
2022/05/23 11:25:46;;;;;;;3.20;2.15;;;22.60;74.70;;;;;;10540021;28;20032;-68
2022/05/23 11:36:24;;;;;;;2.65;2.42;;;22.70;74.10;;;;;;10539853;28;20135;-68
2022/05/23 11:41:32;;;;;;;3.55;2.50;;;22.80;73.80;;;;;;10539450;28;20030;-64
2022/05/23 11:47:13;;;;;;;3.17;2.33;;;22.70;73.60;;;;;;10539494;28;20423;-65
2022/05/23 11:52:31;;;;;;;2.67;2.13;;;22.50;73.50;;;;;;10539101;28;20111;-63
2022/05/23 11:57:37;;;;;;;5.10;2.83;;;22.30;74.30;;;;;;10541898;28;20127;-59
2022/05/23 12:02:39;;;;;;;3.60;2.33;;;22.20;75.30;;;;;;10539548;28;20311;-59
2022/05/23 12:07:56;;;;;;;3.05;2.10;;;22.10;75.70;;;;;;10539401;28;20055;-59
2022/05/23 12:12:57;;;;;;;2.88;2.45;;;21.90;75.80;;;;;;10538529;28;20154;-66
2022/05/23 12:18:00;;;;;;;4.80;2.33;;;21.70;76.70;;;;;;10538211;28;20564;-60
2022/05/23 12:23:13;;;;;;;4.07;2.20;;;21.60;77.00;;;;;;10538416;28;20035;-67
2022/05/23 12:28:16;;;;;;;2.85;2.22;;;21.50;77.10;;;;;;10538546;28;20111;-64
2022/05/23 12:33:23;;;;;;;4.15;2.70;;;21.50;77.50;;;;;;10538144;28;20051;-61
2022/05/23 12:38:36;;;;;;;2.50;2.30;;;21.40;77.70;;;;;;10537878;28;20066;-58
2022/05/23 12:44:25;;;;;;;4.78;2.50;;;21.40;77.80;;;;;;10537612;28;20044;-57
2022/05/23 12:49:43;;;;;;;4.38;2.40;;;21.30;78.10;;;;;;10537723;28;20040;-66
2022/05/23 12:54:59;;;;;;;3.22;2.40;;;21.20;78.20;;;;;;10537343;28;20032;-62
2022/05/23 13:00:21;;;;;;;9.55;3.90;;;21.20;78.40;;;;;;10536858;28;20047;-68
2022/05/23 13:05:40;;;;;;;4.13;3.10;;;21.30;79.80;;;;;;10537113;28;20036;-65
2022/05/23 13:10:43;;;;;;;8.18;4.35;;;21.40;80.00;;;;;;10536653;28;20114;-62
2022/05/23 13:15:44;;;;;;;7.70;4.40;;;21.40;80.10;;;;;;10536481;28;20044;-66
2022/05/23 13:26:07;;;;;;;10.52;5.40;;;21.80;80.60;;;;;;10535831;28;20105;-70
2022/05/23 13:31:27;;;;;;;6.35;4.80;;;22.00;80.60;;;;;;10535896;28;20047;-70
2022/05/23 13:36:44;;;;;;;5.35;4.22;;;22.20;80.90;;;;;;10535911;28;20036;-68
2022/05/23 13:41:45;;;;;;;8.00;5.30;;;22.20;80.90;;;;;;10535917;28;20096;-65
2022/05/23 13:46:47;;;;;;;9.25;6.35;;;22.20;80.40;;;;;;10535842;28;20032;-66
2022/05/23 13:51:55;;;;;;;9.18;4.82;;;22.20;80.30;;;;;;10535650;28;20032;-69
2022/05/23 13:57:01;;;;;;;11.52;6.07;;;22.30;80.40;;;;;;10535545;28;20408;-60
2022/05/23 14:02:05;;;;;;;7.63;5.18;;;22.40;80.00;;;;;;10535231;28;20024;-60
2022/05/23 14:07:12;;;;;;;8.48;5.13;;;22.30;80.20;;;;;;10535123;28;20032;-60
2022/05/23 14:12:20;;;;;;;10.38;5.75;;;22.20;80.60;;;;;;10535142;28;20097;-61
2022/05/23 14:17:31;;;;;;;7.18;5.38;;;22.20;81.10;;;;;;10534905;28;20040;-63
2022/05/23 14:22:32;;;;;;;10.90;5.60;;;22.20;81.50;;;;;;10534682;28;20032;-60
2022/05/23 14:27:34;;;;;;;7.22;5.10;;;22.10;81.70;;;;;;10534844;28;20044;-64
2022/05/23 14:32:35;;;;;;;8.32;4.95;;;22.10;82.30;;;;;;10534617;28;20052;-66
2022/05/23 14:37:36;;;;;;;6.72;4.85;;;22.10;82.30;;;;;;10540990;28;20040;-62
2022/05/23 14:42:40;;;;;;;9.10;5.00;;;22.10;82.50;;;;;;10542446;28;20516;-68
2022/05/23 14:47:59;;;;;;;13.13;6.00;;;22.10;82.60;;;;;;10542102;28;20043;-65
2022/05/23 15:03:54;;;;;;;8.82;6.15;;;21.80;85.10;;;;;;10540702;28;20047;-66
2022/05/23 15:08:59;;;;;;;9.10;5.97;;;21.70;85.00;;;;;;10541353;28;20396;-63
2022/05/23 15:14:01;;;;;;;10.05;6.10;;;21.80;85.10;;;;;;10541203;28;20044;-63
2022/05/23 15:19:02;;;;;;;9.00;6.47;;;21.90;84.70;;;;;;10541259;28;20040;-69
2022/05/23 15:24:04;;;;;;;9.00;6.10;;;21.90;84.50;;;;;;10540963;28;20056;-62
2022/05/23 15:29:05;;;;;;;9.23;5.65;;;21.90;84.40;;;;;;10540574;28;20039;-70
2022/05/23 15:34:06;;;;;;;7.53;6.05;;;21.90;84.50;;;;;;10540481;28;20031;-65
2022/05/23 15:39:07;;;;;;;9.40;5.90;;;21.90;85.10;;;;;;10540148;28;20393;-64
2022/05/23 15:44:13;;;;;;;6.35;5.35;;;21.80;86.70;;;;;;10539979;28;20032;-69
2022/05/23 15:49:15;;;;;;;6.80;5.10;;;21.70;87.20;;;;;;10539117;28;20029;-65
2022/05/23 15:54:15;;;;;;;7.65;5.35;;;21.60;87.50;;;;;;10539721;28;20446;-65
2022/05/23 15:59:19;;;;;;;7.28;4.40;;;21.60;87.80;;;;;;10539473;28;20048;-65
2022/05/23 16:04:20;;;;;;;5.15;4.57;;;21.50;88.20;;;;;;10539692;28;20085;-64
2022/05/23 16:09:21;;;;;;;10.10;4.35;;;21.40;88.40;;;;;;10539352;28;20127;-65
2022/05/23 16:14:25;;;;;;;9.77;4.72;;;21.30;88.40;;;;;;10539509;28;20033;-62
2022/05/23 16:19:27;;;;;;;4.53;3.83;;;21.20;88.30;;;;;;10538850;28;20067;-58
2022/05/23 16:24:29;;;;;;;6.93;3.95;;;21.20;88.40;;;;;;10538738;28;20032;-58
2022/05/23 16:29:30;;;;;;;4.97;3.97;;;21.10;88.30;;;;;;10538046;28;20102;-66
2022/05/23 16:39:50;;;;;;;5.65;4.32;;;21.10;88.70;;;;;;10538038;28;20054;-62
2022/05/23 16:44:50;;;;;;;5.15;3.90;;;21.00;89.00;;;;;;10537795;28;20148;-58
2022/05/23 16:49:54;;;;;;;6.25;5.10;;;21.00;89.20;;;;;;10537978;28;20036;-63
2022/05/23 16:54:55;;;;;;;5.95;4.40;;;20.90;89.40;;;;;;10537508;28;20059;-58
2022/05/23 16:59:55;;;;;;;7.03;4.40;;;20.90;89.40;;;;;;10537130;28;20050;-66
2022/05/23 17:04:56;;;;;;;7.45;4.32;;;20.80;89.70;;;;;;10536822;28;20392;-67
2022/05/23 17:09:57;;;;;;;6.20;4.47;;;20.80;89.90;;;;;;10536802;28;20046;-58
2022/05/23 17:14:58;;;;;;;15.80;10.60;;;20.70;90.00;;;;;;10536723;28;20026;-69
2022/05/23 17:19:58;;;;;;;17.13;12.77;;;20.50;90.90;;;;;;10536649;28;20458;-73
2022/05/23 17:24:59;;;;;;;19.42;14.20;;;20.20;92.70;;;;;;10535877;28;20042;-68
2022/05/23 17:30:00;;;;;;;17.50;11.73;;;19.80;93.90;;;;;;10536472;28;20142;-58
2022/05/23 17:35:01;;;;;;;16.98;10.63;;;19.80;94.50;;;;;;10534310;28;20066;-64
2022/05/23 17:40:03;;;;;;;15.75;10.70;;;19.80;94.40;;;;;;10534730;28;20436;-64
2022/05/23 17:45:06;;;;;;;18.15;10.25;;;20.00;94.20;;;;;;10534411;28;20032;-65
2022/05/23 17:50:07;;;;;;;13.82;9.05;;;20.00;94.00;;;;;;10534631;28;20465;-63
2022/05/23 17:55:09;;;;;;;12.23;8.65;;;20.10;93.80;;;;;;10534373;28;20402;-64
2022/05/23 18:00:10;;;;;;;13.05;8.68;;;20.20;93.70;;;;;;10533984;28;20040;-61
2022/05/23 18:05:15;;;;;;;13.30;8.27;;;20.20;93.60;;;;;;10534016;28;20149;-59
2022/05/23 18:10:17;;;;;;;10.10;7.28;;;20.20;93.50;;;;;;10537766;28;20047;-60
2022/05/23 18:20:38;;;;;;;12.02;7.18;;;20.20;93.30;;;;;;10543510;28;20064;-61
2022/05/23 18:25:40;;;;;;;7.78;6.15;;;20.20;93.30;;;;;;10543268;28;20043;-59
2022/05/23 18:30:41;;;;;;;11.80;6.63;;;20.20;93.20;;;;;;10542742;28;20428;-61
2022/05/23 18:35:42;;;;;;;9.60;5.95;;;20.10;93.20;;;;;;10542820;28;20127;-61
2022/05/23 18:40:43;;;;;;;10.30;6.82;;;20.10;93.20;;;;;;10542735;28;20090;-60
2022/05/23 18:45:44;;;;;;;6.82;5.85;;;20.10;93.20;;;;;;10542400;28;20415;-61
2022/05/23 18:50:45;;;;;;;7.95;6.03;;;20.10;93.20;;;;;;10542356;28;20366;-59
2022/05/23 18:55:47;;;;;;;9.25;6.63;;;20.00;93.20;;;;;;10542122;28;20493;-57
2022/05/23 19:00:49;;;;;;;7.68;6.40;;;20.00;93.20;;;;;;10541823;28;20025;-64
2022/05/23 19:05:50;;;;;;;10.55;6.38;;;20.00;93.20;;;;;;10541884;28;20067;-63
2022/05/23 19:10:51;;;;;;;8.43;5.93;;;19.90;93.20;;;;;;10540373;28;20024;-57
2022/05/23 19:15:52;;;;;;;9.70;5.72;;;19.90;93.20;;;;;;10541390;28;20036;-56
2022/05/23 19:20:55;;;;;;;7.07;5.28;;;19.90;93.10;;;;;;10539750;28;20043;-65
2022/05/23 19:25:56;;;;;;;6.38;4.95;;;19.90;93.10;;;;;;10541079;28;20032;-61
2022/05/23 19:30:58;;;;;;;7.22;4.85;;;19.90;93.10;;;;;;10540927;28;20044;-63
2022/05/23 19:35:59;;;;;;;6.65;4.80;;;19.80;93.10;;;;;;10540491;28;20044;-60
2022/05/23 19:40:59;;;;;;;6.25;4.93;;;19.80;93.10;;;;;;10540493;28;20036;-59
2022/05/23 19:46:02;;;;;;;6.30;4.95;;;19.70;93.10;;;;;;10539963;28;20212;-62
2022/05/23 19:51:05;;;;;;;8.95;5.38;;;19.70;93.00;;;;;;10539982;28;20020;-60
2022/05/23 19:56:06;;;;;;;7.47;4.97;;;19.70;93.00;;;;;;10539679;28;20048;-59
2022/05/23 20:01:07;;;;;;;6.07;4.53;;;19.70;93.00;;;;;;10539813;28;20028;-59
2022/05/23 20:11:28;;;;;;;7.85;5.30;;;19.60;93.00;;;;;;10538767;28;20032;-65
2022/05/23 20:16:29;;;;;;;5.30;4.68;;;19.50;93.00;;;;;;10538890;28;20044;-64
2022/05/23 20:21:29;;;;;;;7.75;4.57;;;19.50;93.00;;;;;;10538692;28;20387;-62
2022/05/23 20:26:30;;;;;;;6.22;4.35;;;19.50;93.00;;;;;;10538482;28;20542;-59
2022/05/23 20:31:31;;;;;;;6.70;4.72;;;19.50;93.00;;;;;;10537529;28;20396;-60
2022/05/23 20:36:31;;;;;;;5.40;4.65;;;19.50;93.00;;;;;;10537877;28;20044;-62
2022/05/23 20:41:32;;;;;;;7.35;4.95;;;19.40;93.00;;;;;;10537758;28;20032;-58
2022/05/23 20:46:38;;;;;;;5.75;4.20;;;19.40;93.00;;;;;;10537609;28;20036;-62
2022/05/23 20:51:39;;;;;;;8.10;4.60;;;19.30;92.90;;;;;;10537651;28;20032;-62
2022/05/23 20:56:40;;;;;;;6.20;4.32;;;19.30;92.90;;;;;;10537447;28;20093;-60
2022/05/23 21:02:07;;;;;;;5.40;4.38;;;19.30;92.90;;;;;;10537052;28;20076;-62
2022/05/23 21:07:10;;;;;;;6.87;4.37;;;19.30;92.90;;;;;;10537439;28;20025;-56
2022/05/23 21:12:11;;;;;;;5.97;4.20;;;19.30;93.10;;;;;;10537694;28;20365;-61
2022/05/23 21:17:20;;;;;;;6.35;4.00;;;19.20;92.80;;;;;;10536543;28;20055;-61
2022/05/23 21:22:28;;;;;;;7.20;4.43;;;19.20;92.80;;;;;;10536221;28;20039;-58
2022/05/23 21:27:29;;;;;;;5.60;4.18;;;19.20;93.10;;;;;;10536240;28;20119;-57
2022/05/23 21:32:30;;;;;;;5.22;4.30;;;19.10;92.80;;;;;;10536041;28;20564;-62
2022/05/23 21:37:32;;;;;;;8.38;4.43;;;19.10;92.80;;;;;;10535841;28;20036;-56
2022/05/23 21:47:51;;;;;;;4.80;3.88;;;19.00;92.70;;;;;;10535284;28;20036;-59
2022/05/23 21:52:52;;;;;;;5.25;3.35;;;19.00;92.70;;;;;;10535738;28;20127;-60
2022/05/23 21:57:53;;;;;;;4.40;3.10;;;19.00;93.00;;;;;;10535886;28;20353;-65
2022/05/23 22:02:54;;;;;;;4.30;2.90;;;19.00;92.70;;;;;;10535957;28;20527;-58
2022/05/23 22:07:54;;;;;;;5.82;3.22;;;18.90;92.70;;;;;;10535568;28;20032;-62
2022/05/23 22:12:55;;;;;;;4.25;2.85;;;18.90;92.70;;;;;;10535559;28;20086;-56
2022/05/23 22:17:56;;;;;;;4.45;2.70;;;18.90;92.70;;;;;;10535098;28;20048;-56
2022/05/23 22:22:56;;;;;;;4.43;2.20;;;18.90;92.60;;;;;;10535620;28;20126;-61
2022/05/23 22:27:57;;;;;;;6.22;3.03;;;18.80;92.60;;;;;;10535332;28;20078;-57
2022/05/23 22:32:58;;;;;;;3.65;2.17;;;18.80;92.60;;;;;;10532834;28;20048;-60
2022/05/23 22:37:59;;;;;;;4.45;2.13;;;18.80;92.60;;;;;;10535318;28;20056;-59
2022/05/23 22:43:00;;;;;;;2.53;1.92;;;18.80;92.60;;;;;;10534812;28;20028;-57
2022/05/23 22:48:02;;;;;;;3.05;1.90;;;18.80;92.50;;;;;;10535107;28;20032;-62
2022/05/23 22:53:02;;;;;;;2.08;1.67;;;18.70;92.50;;;;;;10534838;28;20028;-62
2022/05/23 22:58:05;;;;;;;2.53;1.70;;;18.70;92.50;;;;;;10539850;28;20036;-58
2022/05/23 23:08:26;;;;;;;5.38;2.13;;;18.60;92.40;;;;;;10541918;28;20040;-58
2022/05/23 23:13:26;;;;;;;2.75;1.50;;;18.60;92.40;;;;;;10541596;28;20036;-59
2022/05/23 23:18:27;;;;;;;2.00;1.38;;;18.60;92.40;;;;;;10541299;28;20138;-61
2022/05/23 23:23:28;;;;;;;2.72;1.40;;;18.60;92.40;;;;;;10541174;28;20039;-62
2022/05/23 23:28:29;;;;;;;1.92;1.13;;;18.50;92.30;;;;;;10541070;28;20040;-59
2022/05/23 23:38:50;;;;;;;1.98;1.27;;;18.50;92.30;;;;;;10540708;28;20044;-57
2022/05/23 23:43:51;;;;;;;3.85;1.20;;;18.40;92.20;;;;;;10540462;28;20139;-57
2022/05/23 23:48:51;;;;;;;2.25;1.10;;;18.40;92.20;;;;;;10540387;28;20055;-61
2022/05/23 23:53:52;;;;;;;1.88;1.30;;;18.40;92.20;;;;;;10540254;28;20058;-58
2022/05/23 23:58:53;;;;;;;2.58;1.15;;;18.40;92.20;;;;;;10539550;28;20394;-62
